Time;durP1;ratioP1;P1;durP2;ratioP2;P2;SDS_P1;SDS_P2;PMS_P1;PMS_P2;Temp;Humidity;BMP_temperature;BMP_pressure;BME280_temperature;BME280_humidity;BME280_pressure;Samples;Min_cycle;Max_cycle;Signal;HPM_P1;HPM_P2
2021/06/18 00:01:13;;;;;;;12.30;10.20;;;;;;;22.11;58.40;100773.56;3547180;40;20091;-49
2021/06/18 00:03:41;;;;;;;11.48;10.30;;;;;;;22.08;58.59;100774.47;3546654;40;20062;-52
2021/06/18 00:06:08;;;;;;;11.18;10.13;;;;;;;22.10;58.36;100780.53;3555147;40;20092;-53
2021/06/18 00:08:37;;;;;;;11.73;10.60;;;;;;;22.03;58.79;100771.09;3550233;40;20058;-51
2021/06/18 00:11:04;;;;;;;12.65;10.48;;;;;;;22.08;59.02;100769.25;3548080;40;20066;-51
2021/06/18 00:13:31;;;;;;;16.13;10.65;;;;;;;21.92;59.49;100767.88;3548600;40;20062;-53
2021/06/18 00:15:58;;;;;;;11.27;10.15;;;;;;;21.94;58.99;100767.81;3548128;40;20178;-56
2021/06/18 00:18:25;;;;;;;11.68;10.57;;;;;;;21.87;59.70;100764.50;3550395;40;20173;-52
2021/06/18 00:20:53;;;;;;;11.95;10.75;;;;;;;21.84;60.40;100764.53;3547252;40;20160;-54
2021/06/18 00:23:20;;;;;;;11.88;10.68;;;;;;;21.75;61.04;100764.72;3548670;40;20086;-55
2021/06/18 00:25:47;;;;;;;12.23;11.02;;;;;;;21.80;60.23;100765.50;3550071;40;20062;-50
2021/06/18 00:28:14;;;;;;;14.98;11.00;;;;;;;21.65;60.85;100760.56;3551497;40;20080;-54
2021/06/18 00:30:42;;;;;;;11.23;10.30;;;;;;;21.72;60.39;100754.34;3546785;40;20055;-53
2021/06/18 00:33:09;;;;;;;12.73;11.35;;;;;;;21.67;61.07;100761.38;3547862;40;20086;-51
2021/06/18 00:35:36;;;;;;;14.52;11.40;;;;;;;21.62;61.28;100756.25;3548391;40;20133;-53
2021/06/18 00:38:04;;;;;;;12.50;11.40;;;;;;;21.61;61.13;100755.41;3547549;40;20068;-56
2021/06/18 00:40:31;;;;;;;13.52;10.65;;;;;;;21.65;61.32;100763.19;3548214;40;20088;-56
2021/06/18 00:42:58;;;;;;;12.43;11.27;;;;;;;21.60;61.60;100764.13;3549377;40;20098;-52
2021/06/18 00:45:25;;;;;;;13.95;11.02;;;;;;;21.52;61.36;100763.41;3551584;40;20113;-52
2021/06/18 00:48:00;;;;;;;11.48;10.48;;;;;;;21.53;61.79;100761.66;3555187;40;20081;-55
2021/06/18 00:50:28;;;;;;;12.68;11.43;;;;;;;21.52;61.68;100760.78;3546715;40;20105;-54
2021/06/18 00:52:56;;;;;;;12.43;11.30;;;;;;;21.41;62.03;100756.69;3549609;40;20105;-54
2021/06/18 00:55:23;;;;;;;11.85;10.70;;;;;;;21.41;62.24;100752.31;3548452;40;20084;-52
2021/06/18 00:57:51;;;;;;;28.70;11.43;;;;;;;21.48;61.55;100759.13;3548419;40;20122;-53
2021/06/18 01:00:19;;;;;;;11.70;10.73;;;;;;;21.41;62.05;100757.53;3549912;40;20042;-53
2021/06/18 01:02:46;;;;;;;12.45;11.27;;;;;;;21.31;62.67;100751.63;3549845;40;20057;-57
2021/06/18 01:05:16;;;;;;;13.48;11.93;;;;;;;21.23;63.50;100750.00;3548258;40;20055;-51
2021/06/18 01:08:01;;;;;;;13.02;11.63;;;;;;;21.22;63.52;100756.13;3548286;40;20061;-53
2021/06/18 01:10:31;;;;;;;14.30;12.35;;;;;;;21.16;64.00;100753.59;3550193;40;20089;-53
2021/06/18 01:13:20;;;;;;;13.10;11.85;;;;;;;21.05;64.13;100741.63;3558706;40;20085;-53
2021/06/18 01:15:55;;;;;;;12.07;10.98;;;;;;;21.05;64.00;100741.63;3553583;40;20058;-52
2021/06/18 01:18:33;;;;;;;13.10;11.80;;;;;;;21.04;64.11;100744.25;3551913;40;20078;-55
2021/06/18 01:21:18;;;;;;;13.82;12.43;;;;;;;20.99;65.41;100749.53;3558201;40;20392;-51
2021/06/18 01:24:11;;;;;;;14.00;12.50;;;;;;;21.00;64.84;100747.78;3551321;40;20054;-53
2021/06/18 01:27:14;;;;;;;16.17;12.90;;;;;;;20.89;65.43;100745.38;3550189;40;20054;-49
2021/06/18 01:29:54;;;;;;;14.77;12.40;;;;;;;20.77;66.61;100749.00;3553356;40;20078;-53
2021/06/18 01:32:41;;;;;;;14.90;12.80;;;;;;;20.74;66.37;100750.78;3553821;40;20061;-52
2021/06/18 01:35:13;;;;;;;15.82;13.68;;;;;;;20.70;66.90;100752.56;3550628;40;20110;-53
2021/06/18 01:37:43;;;;;;;15.60;12.70;;;;;;;20.74;66.79;100753.41;3549884;40;20424;-55
2021/06/18 01:40:11;;;;;;;18.75;13.57;;;;;;;20.63;68.41;100750.09;3548237;40;20064;-53
2021/06/18 01:42:43;;;;;;;13.98;12.35;;;;;;;20.68;67.04;100743.09;3548120;40;20429;-54
2021/06/18 01:45:14;;;;;;;17.98;14.18;;;;;;;20.68;67.42;100738.75;3549252;40;20054;-54
2021/06/18 01:47:44;;;;;;;13.90;12.50;;;;;;;20.68;67.45;100735.28;3549580;40;20121;-56
2021/06/18 01:50:15;;;;;;;13.85;12.45;;;;;;;20.62;67.85;100738.84;3547726;40;20073;-54
2021/06/18 01:52:49;;;;;;;14.27;12.98;;;;;;;20.55;67.83;100739.81;3552774;40;20046;-50
2021/06/18 01:55:21;;;;;;;14.45;13.00;;;;;;;20.58;67.68;100731.97;3548920;40;20097;-52
2021/06/18 01:57:51;;;;;;;14.98;12.50;;;;;;;20.58;67.79;100732.81;3549478;40;20102;-54
2021/06/18 02:00:19;;;;;;;14.10;12.77;;;;;;;20.48;68.40;100728.63;3548369;40;20048;-53
2021/06/18 02:02:48;;;;;;;15.32;12.07;;;;;;;20.48;68.79;100727.78;3548666;40;20054;-51
2021/06/18 02:05:17;;;;;;;15.23;13.63;;;;;;;20.42;69.16;100728.66;3543262;40;20122;-50
2021/06/18 02:07:45;;;;;;;14.13;12.57;;;;;;;20.32;69.46;100722.75;3548587;40;20060;-53
2021/06/18 02:10:13;;;;;;;14.27;12.70;;;;;;;20.27;69.74;100732.34;3548674;40;20346;-53
2021/06/18 02:12:42;;;;;;;13.90;12.57;;;;;;;20.37;70.09;100727.03;3548526;40;20319;-53
2021/06/18 02:15:10;;;;;;;14.50;13.10;;;;;;;20.18;70.09;100727.28;3548652;40;20454;-51
2021/06/18 02:17:41;;;;;;;14.07;12.65;;;;;;;20.14;70.59;100724.72;3550931;40;20329;-50
2021/06/18 02:20:11;;;;;;;14.98;13.50;;;;;;;20.24;70.27;100716.78;3552537;40;20105;-51
2021/06/18 02:22:40;;;;;;;14.48;12.80;;;;;;;20.17;70.40;100719.50;3552776;40;20061;-55
2021/06/18 02:25:08;;;;;;;14.13;12.82;;;;;;;20.26;70.77;100728.03;3553312;40;20088;-55
2021/06/18 02:27:38;;;;;;;16.05;13.10;;;;;;;20.21;70.45;100723.78;3554576;40;20470;-52
2021/06/18 02:30:07;;;;;;;14.23;12.82;;;;;;;20.13;71.13;100730.81;3552469;40;20090;-55
2021/06/18 02:32:36;;;;;;;15.10;13.60;;;;;;;20.15;71.23;100731.66;3555361;40;20049;-51
2021/06/18 02:35:05;;;;;;;17.17;13.30;;;;;;;20.01;72.07;100731.81;3556307;40;20322;-54
2021/06/18 02:37:32;;;;;;;15.88;14.20;;;;;;;20.02;71.56;100734.44;3557920;40;20097;-53
2021/06/18 02:39:59;;;;;;;17.60;13.60;;;;;;;19.99;72.33;100739.66;3543805;40;20064;-56
2021/06/18 02:42:26;;;;;;;15.10;13.48;;;;;;;19.93;73.22;100741.47;3556118;40;20052;-53
2021/06/18 02:44:54;;;;;;;15.15;13.30;;;;;;;19.90;72.52;100742.38;3557418;40;20089;-50
2021/06/18 02:47:29;;;;;;;15.25;13.63;;;;;;;19.95;73.33;100745.75;3555743;40;20248;-55
2021/06/18 02:50:24;;;;;;;15.38;13.75;;;;;;;19.91;72.62;100743.22;3554179;40;20101;-52
2021/06/18 02:53:00;;;;;;;14.85;13.27;;;;;;;19.84;73.27;100745.03;3549572;40;20187;-51
2021/06/18 02:55:31;;;;;;;;;;;;;;;19.75;73.69;100743.41;3548083;40;20073;-56
2021/06/18 02:58:10;;;;;;;15.15;13.57;;;;;;;19.81;73.59;100745.06;3548916;40;20196;-53
2021/06/18 03:00:41;;;;;;;15.40;13.98;;;;;;;19.71;74.55;100739.13;3551338;40;20050;-56
2021/06/18 03:03:13;;;;;;;19.38;14.50;;;;;;;19.69;74.38;100747.78;3553799;40;20066;-55
2021/06/18 03:05:42;;;;;;;18.00;13.77;;;;;;;19.69;74.89;100756.47;3553626;40;20094;-52
2021/06/18 03:08:11;;;;;;;15.82;14.23;;;;;;;19.63;74.71;100751.31;3551442;40;20089;-52
2021/06/18 03:10:44;;;;;;;16.92;14.07;;;;;;;19.65;75.13;100759.97;3551329;40;20073;-52
2021/06/18 03:13:18;;;;;;;15.38;13.70;;;;;;;19.74;74.41;100761.63;3553735;40;20053;-52
2021/06/18 03:15:47;;;;;;;17.52;14.57;;;;;;;19.69;74.73;100759.06;3553999;40;20081;-52
2021/06/18 03:18:18;;;;;;;15.55;13.95;;;;;;;19.73;74.06;100755.53;3551886;40;20363;-52
2021/06/18 03:20:46;;;;;;;15.73;14.13;;;;;;;19.71;74.50;100761.66;3552110;40;20061;-53
2021/06/18 03:23:17;;;;;;;15.85;13.40;;;;;;;19.81;74.15;100755.47;3553697;40;20057;-53
2021/06/18 03:25:46;;;;;;;16.17;13.85;;;;;;;19.75;74.27;100760.75;3553515;40;20120;-53
2021/06/18 03:28:14;;;;;;;15.52;13.73;;;;;;;19.72;74.64;100773.75;3552472;40;20295;-52
2021/06/18 03:30:47;;;;;;;16.48;14.38;;;;;;;19.74;75.41;100774.63;3551835;40;20062;-51
2021/06/18 03:33:16;;;;;;;17.15;14.73;;;;;;;19.69;75.10;100769.47;3552047;40;20062;-54
2021/06/18 03:35:46;;;;;;;15.57;14.05;;;;;;;19.72;75.47;100778.94;3555587;40;20076;-51
2021/06/18 03:38:15;;;;;;;15.30;13.77;;;;;;;19.74;75.50;100767.69;3552278;40;20478;-54
2021/06/18 03:40:42;;;;;;;17.52;14.70;;;;;;;19.71;76.22;100774.63;3551944;40;20109;-54
2021/06/18 03:43:11;;;;;;;14.98;13.48;;;;;;;19.69;76.49;100768.56;3553622;40;20065;-54
2021/06/18 03:45:42;;;;;;;16.85;14.80;;;;;;;19.75;76.28;100773.72;3553311;40;20058;-54
2021/06/18 03:48:12;;;;;;;16.15;14.43;;;;;;;19.72;76.64;100771.16;3552622;40;20089;-56
2021/06/18 03:50:39;;;;;;;17.40;14.43;;;;;;;19.71;76.61;100772.03;3551667;40;20153;-55
2021/06/18 03:53:10;;;;;;;18.30;13.43;;;;;;;19.93;74.01;100763.13;3553808;40;20062;-52
2021/06/18 03:55:38;;;;;;;17.77;14.70;;;;;;;20.01;74.64;100768.22;3553464;40;20344;-52
2021/06/18 03:58:06;;;;;;;14.90;12.77;;;;;;;19.96;74.42;100768.28;3553287;40;20108;-54
2021/06/18 04:00:39;;;;;;;17.08;14.57;;;;;;;20.13;74.14;100762.03;3551172;40;20078;-53
2021/06/18 04:03:07;;;;;;;19.27;14.38;;;;;;;20.13;73.91;100764.63;3553552;40;20065;-55
2021/06/18 04:05:37;;;;;;;14.98;13.18;;;;;;;20.09;74.19;100762.03;3552636;40;20042;-54
2021/06/18 04:08:06;;;;;;;19.80;14.02;;;;;;;20.22;73.92;100767.97;3553143;40;20116;-54
2021/06/18 04:10:33;;;;;;;17.20;13.60;;;;;;;20.29;73.66;100764.41;3551074;40;20094;-53
2021/06/18 04:13:01;;;;;;;16.23;13.13;;;;;;;20.36;73.63;100767.78;3554499;40;20053;-54
2021/06/18 04:15:29;;;;;;;18.02;12.75;;;;;;;20.44;73.17;100775.50;3550029;40;20120;-52
2021/06/18 04:17:58;;;;;;;17.25;13.40;;;;;;;20.54;73.17;100772.78;3549532;40;20157;-51
2021/06/18 04:20:26;;;;;;;16.17;13.30;;;;;;;20.66;72.00;100763.94;3548498;40;20413;-55
2021/06/18 04:22:53;;;;;;;15.13;12.82;;;;;;;20.82;71.15;100777.56;3548799;40;20285;-57
2021/06/18 04:25:22;;;;;;;14.73;13.13;;;;;;;21.10;71.02;100775.38;3550180;40;20109;-54
2021/06/18 04:27:50;;;;;;;18.88;12.68;;;;;;;20.91;70.86;100774.81;3550331;40;20085;-53
2021/06/18 04:30:18;;;;;;;14.90;13.25;;;;;;;21.03;71.33;100769.44;3548478;40;20069;-54
2021/06/18 04:32:46;;;;;;;14.05;12.57;;;;;;;21.20;70.05;100779.56;3548337;40;20391;-54
2021/06/18 04:35:13;;;;;;;14.63;12.80;;;;;;;21.06;70.25;100773.72;3550218;40;20046;-54
2021/06/18 04:37:42;;;;;;;15.85;11.77;;;;;;;21.15;69.55;100786.59;3550045;40;20082;-59
2021/06/18 04:40:10;;;;;;;16.33;13.70;;;;;;;21.09;70.06;100776.28;3548910;40;20058;-54
2021/06/18 04:42:38;;;;;;;20.65;12.88;;;;;;;21.20;69.34;100776.94;3548294;40;20058;-54
2021/06/18 04:45:06;;;;;;;15.57;12.57;;;;;;;21.41;69.15;100783.59;3551919;40;20070;-54
2021/06/18 04:47:34;;;;;;;18.02;12.13;;;;;;;21.47;68.86;100777.41;3548659;40;20077;-52
2021/06/18 04:50:01;;;;;;;20.80;13.10;;;;;;;21.46;69.38;100786.97;3549407;40;20077;-51
2021/06/18 04:52:29;;;;;;;20.63;13.13;;;;;;;21.63;68.62;100777.97;3553888;40;20045;-51
2021/06/18 04:55:01;;;;;;;14.70;11.77;;;;;;;21.68;68.32;100789.16;3554891;40;20097;-52
2021/06/18 04:57:29;;;;;;;14.35;12.57;;;;;;;21.81;68.20;100781.09;3548122;40;20344;-52
2021/06/18 04:59:56;;;;;;;16.70;11.45;;;;;;;21.95;67.10;100791.25;3548633;40;20105;-54
2021/06/18 05:02:23;;;;;;;21.65;12.68;;;;;;;21.93;68.19;100787.81;3549611;40;20360;-55
2021/06/18 05:04:50;;;;;;;17.65;12.25;;;;;;;22.00;67.59;100786.84;3549573;40;20073;-53
2021/06/18 05:07:17;;;;;;;15.38;12.25;;;;;;;22.21;66.80;100784.69;3548001;40;20055;-53
2021/06/18 05:09:44;;;;;;;15.32;12.55;;;;;;;22.24;67.38;100784.66;3548155;40;20770;-55
2021/06/18 05:12:11;;;;;;;13.93;11.00;;;;;;;22.60;66.32;100783.84;3549435;40;20046;-53
2021/06/18 05:14:39;;;;;;;16.60;11.80;;;;;;;22.84;65.31;100790.25;3549849;40;20320;-54
2021/06/18 05:17:06;;;;;;;13.68;11.48;;;;;;;22.85;64.84;100791.97;3549871;40;20412;-54
2021/06/18 05:19:33;;;;;;;12.98;11.25;;;;;;;23.01;63.34;100799.47;3549594;40;20080;-53
2021/06/18 05:22:00;;;;;;;11.63;10.63;;;;;;;23.19;62.93;100792.94;3548564;40;20060;-51
2021/06/18 05:24:27;;;;;;;13.63;10.38;;;;;;;23.36;61.84;100795.97;3547345;40;20086;-53
2021/06/18 05:26:54;;;;;;;10.98;9.95;;;;;;;23.48;61.13;100793.06;3547943;40;20055;-52
2021/06/18 05:29:22;;;;;;;14.35;10.65;;;;;;;23.49;61.85;100793.91;3549419;40;20157;-54
2021/06/18 05:31:53;;;;;;;12.00;10.07;;;;;;;23.79;59.49;100800.09;3547648;40;20144;-55
2021/06/18 05:34:22;;;;;;;13.18;11.25;;;;;;;23.87;59.90;100795.53;3559755;40;20367;-52
2021/06/18 05:36:48;;;;;;;13.05;10.10;;;;;;;23.71;59.94;100800.34;3559312;40;20060;-55
2021/06/18 05:39:16;;;;;;;10.90;9.68;;;;;;;24.04;58.82;100801.16;3559439;40;20053;-52
2021/06/18 05:41:43;;;;;;;9.85;8.82;;;;;;;23.99;59.39;100805.66;3559435;40;20100;-54
2021/06/18 05:44:12;;;;;;;10.68;9.07;;;;;;;24.36;56.99;100802.00;3557865;40;20499;-53
2021/06/18 05:46:40;;;;;;;10.35;9.40;;;;;;;24.51;57.53;100808.56;3557574;40;20117;-52
2021/06/18 05:49:08;;;;;;;10.70;9.10;;;;;;;24.46;57.10;100810.47;3559248;40;20054;-55
2021/06/18 05:51:35;;;;;;;10.27;8.70;;;;;;;24.69;55.63;100808.00;3559135;40;20416;-55
2021/06/18 05:54:03;;;;;;;9.48;7.75;;;;;;;24.88;53.86;100811.75;3558853;40;20367;-51
2021/06/18 05:56:30;;;;;;;12.15;8.35;;;;;;;24.96;54.19;100806.28;3551741;40;20452;-56
2021/06/18 05:58:57;;;;;;;9.15;7.50;;;;;;;25.17;53.24;100796.88;3553801;40;20444;-54
2021/06/18 06:01:24;;;;;;;10.52;8.25;;;;;;;25.28;54.17;100804.38;3553722;40;20117;-53
2021/06/18 06:03:59;;;;;;;10.65;8.43;;;;;;;25.29;52.92;100806.09;3552547;40;20422;-52
2021/06/18 06:06:29;;;;;;;8.95;7.47;;;;;;;25.42;51.68;100815.25;3550486;40;20408;-57
2021/06/18 06:08:56;;;;;;;12.15;8.07;;;;;;;25.47;51.07;100810.72;3560082;40;20362;-53
2021/06/18 06:11:25;;;;;;;12.15;7.43;;;;;;;25.73;50.38;100819.44;3558864;40;20120;-53
2021/06/18 06:14:03;;;;;;;8.73;7.30;;;;;;;25.78;50.47;100815.78;3550824;40;20058;-54
2021/06/18 06:16:34;;;;;;;8.82;7.32;;;;;;;25.87;49.00;100811.97;3558961;40;20059;-52
2021/06/18 06:19:03;;;;;;;7.15;6.55;;;;;;;26.08;48.84;100819.09;3559321;40;20061;-54
2021/06/18 06:21:30;;;;;;;8.40;7.25;;;;;;;26.10;49.07;100808.50;3559374;40;20045;-57
2021/06/18 06:23:57;;;;;;;8.15;7.05;;;;;;;26.21;47.02;100811.63;3552986;40;20054;-53
2021/06/18 06:26:24;;;;;;;8.35;7.05;;;;;;;26.20;47.43;100807.25;3559263;40;20093;-54
2021/06/18 06:28:52;;;;;;;7.50;6.68;;;;;;;26.38;46.79;100810.97;3559913;40;20093;-53
2021/06/18 06:31:20;;;;;;;13.65;7.35;;;;;;;26.48;47.79;100804.47;3550988;40;20082;-55
2021/06/18 06:33:48;;;;;;;9.20;6.85;;;;;;;26.47;46.47;100812.41;3549682;40;20090;-54
2021/06/18 06:36:15;;;;;;;7.78;6.43;;;;;;;26.78;46.80;100812.09;3550466;40;20085;-53
2021/06/18 06:38:43;;;;;;;8.25;5.85;;;;;;;26.86;45.35;100816.13;3554818;40;20123;-56
2021/06/18 06:41:12;;;;;;;7.95;6.45;;;;;;;26.86;44.78;100818.75;3546596;40;20145;-55
2021/06/18 06:43:39;;;;;;;10.68;6.32;;;;;;;27.07;44.46;100817.00;3550381;40;20050;-53
2021/06/18 06:46:06;;;;;;;8.32;6.25;;;;;;;27.32;43.72;100816.06;3550112;40;20097;-55
2021/06/18 06:48:33;;;;;;;8.48;6.65;;;;;;;27.42;44.04;100823.47;3549593;40;20078;-56
2021/06/18 06:51:01;;;;;;;7.70;7.00;;;;;;;27.51;44.31;100824.03;3559352;40;20069;-52
2021/06/18 06:53:28;;;;;;;6.93;6.05;;;;;;;27.75;42.96;100824.75;3558856;40;20072;-54
2021/06/18 06:55:55;;;;;;;6.97;5.75;;;;;;;28.00;42.32;100829.78;3551101;40;20082;-52
2021/06/18 06:58:22;;;;;;;6.82;6.00;;;;;;;27.97;41.09;100833.44;3550703;40;20054;-53
2021/06/18 07:00:50;;;;;;;6.47;5.70;;;;;;;27.72;41.63;100830.16;3554863;40;20304;-59
2021/06/18 07:03:18;;;;;;;8.70;6.03;;;;;;;27.86;42.01;100823.34;3549161;40;20077;-54
2021/06/18 07:05:45;;;;;;;8.00;6.38;;;;;;;27.87;41.33;100829.47;3553930;40;20635;-58
2021/06/18 07:08:20;;;;;;;9.88;6.35;;;;;;;28.50;40.38;100831.94;3552734;40;20076;-57
2021/06/18 07:10:48;;;;;;;7.70;5.80;;;;;;;28.48;40.91;100824.09;3551687;40;20311;-55
2021/06/18 07:13:15;;;;;;;6.80;6.10;;;;;;;28.35;40.05;100828.22;3548298;40;20367;-54
2021/06/18 07:15:43;;;;;;;10.40;6.43;;;;;;;28.87;40.11;100825.75;3552924;40;20125;-55
2021/06/18 07:18:10;;;;;;;7.75;6.13;;;;;;;28.68;39.60;100834.56;3552082;40;20057;-58
2021/06/18 07:20:37;;;;;;;11.45;5.75;;;;;;;28.93;39.24;100825.44;3551840;40;20077;-58
2021/06/18 07:23:05;;;;;;;9.52;5.78;;;;;;;29.30;39.47;100813.13;3551327;40;20069;-59
2021/06/18 07:25:32;;;;;;;6.80;5.65;;;;;;;29.25;38.16;100810.72;3552042;40;20056;-54
2021/06/18 07:28:03;;;;;;;8.82;5.78;;;;;;;29.11;38.53;100818.47;3547003;40;20140;-57
2021/06/18 07:30:36;;;;;;;8.30;6.18;;;;;;;29.62;38.16;100816.78;3551968;40;20136;-57
2021/06/18 07:33:04;;;;;;;7.75;5.75;;;;;;;30.21;36.39;100822.53;3552378;40;20107;-56
2021/06/18 07:35:31;;;;;;;8.93;5.60;;;;;;;30.49;37.13;100822.72;3549997;40;20090;-54
2021/06/18 07:37:59;;;;;;;7.57;5.63;;;;;;;30.81;35.93;100822.72;3553764;40;20053;-55
2021/06/18 07:40:26;;;;;;;5.38;4.95;;;;;;;30.31;35.70;100821.06;3550425;40;20119;-56
2021/06/18 07:42:54;;;;;;;6.20;5.55;;;;;;;30.96;35.10;100821.84;3552190;40;20074;-53
2021/06/18 07:45:21;;;;;;;6.47;5.88;;;;;;;30.47;35.31;100813.19;3551879;40;20062;-55
2021/06/18 07:47:48;;;;;;;6.00;5.38;;;;;;;30.92;34.78;100804.44;3551706;40;20050;-56
2021/06/18 07:50:17;;;;;;;5.53;4.78;;;;;;;31.08;33.43;100815.00;3549040;40;20085;-54
2021/06/18 07:52:45;;;;;;;6.22;5.45;;;;;;;31.24;34.24;100805.22;3551496;40;20113;-56
2021/06/18 07:55:22;;;;;;;7.55;4.50;;;;;;;31.16;33.91;100803.03;3554448;40;20062;-54
2021/06/18 07:57:51;;;;;;;6.93;4.47;;;;;;;31.85;33.05;100800.75;3550222;40;20054;-52
2021/06/18 08:00:20;;;;;;;5.10;4.60;;;;;;;31.76;32.69;100812.72;3557270;40;20085;-58
2021/06/18 08:02:47;;;;;;;7.00;4.68;;;;;;;31.84;32.19;100802.53;3557241;40;20368;-53
2021/06/18 08:05:15;;;;;;;6.38;4.75;;;;;;;32.14;31.44;100801.59;3555377;40;20086;-57
2021/06/18 08:07:45;;;;;;;5.53;4.57;;;;;;;31.86;32.15;100795.34;3547691;40;20054;-55
2021/06/18 08:10:14;;;;;;;5.47;4.45;;;;;;;32.23;31.06;100797.50;3550460;40;20065;-53
2021/06/18 08:12:44;;;;;;;6.80;5.13;;;;;;;32.52;31.98;100788.56;3548577;40;20491;-53
2021/06/18 08:15:12;;;;;;;4.45;4.05;;;;;;;32.99;30.22;100789.06;3550926;40;20587;-53
2021/06/18 08:17:39;;;;;;;6.82;4.38;;;;;;;33.17;30.54;100807.28;3553672;40;20058;-54
2021/06/18 08:20:11;;;;;;;6.82;4.93;;;;;;;33.16;29.94;100796.78;3550294;40;20065;-55
2021/06/18 08:22:40;;;;;;;6.18;4.00;;;;;;;33.14;29.90;100802.19;3549219;40;20058;-55
2021/06/18 08:25:07;;;;;;;4.82;4.28;;;;;;;32.46;30.59;100801.38;3551290;40;20091;-54
2021/06/18 08:27:35;;;;;;;7.32;4.70;;;;;;;31.80;30.50;100779.81;3547642;40;20073;-56
2021/06/18 08:30:04;;;;;;;8.43;5.07;;;;;;;31.76;31.21;100791.56;3549920;40;20050;-53
2021/06/18 08:32:47;;;;;;;5.95;3.95;;;;;;;31.64;30.56;100781.69;3548869;40;20054;-57
2021/06/18 08:35:14;;;;;;;8.32;3.97;;;;;;;31.69;31.54;100777.81;3549702;40;20419;-56
2021/06/18 08:37:42;;;;;;;5.47;4.22;;;;;;;31.81;31.20;100781.53;3548160;40;20551;-55
2021/06/18 08:40:10;;;;;;;4.32;3.92;;;;;;;31.63;31.51;100780.00;3548965;40;20062;-54
2021/06/18 08:42:39;;;;;;;8.25;4.53;;;;;;;31.84;30.51;100788.44;3547425;40;20056;-55
2021/06/18 08:45:07;;;;;;;7.65;3.60;;;;;;;31.48;30.42;100775.59;3557713;40;20061;-57
2021/06/18 08:47:35;;;;;;;4.57;3.95;;;;;;;31.59;30.67;100775.84;3551554;40;20821;-52
2021/06/18 08:50:03;;;;;;;7.43;4.47;;;;;;;31.37;31.79;100770.97;3549561;40;20050;-55
2021/06/18 08:52:30;;;;;;;6.15;4.35;;;;;;;31.47;31.38;100769.47;3549104;40;20093;-56
2021/06/18 08:54:58;;;;;;;7.78;3.88;;;;;;;31.54;31.38;100767.31;3547524;40;20038;-54
2021/06/18 08:57:25;;;;;;;7.63;3.90;;;;;;;31.61;30.73;100769.47;3548768;40;20053;-57
2021/06/18 08:59:53;;;;;;;5.78;4.07;;;;;;;31.55;31.06;100766.38;3555669;40;20400;-52
2021/06/18 09:02:20;;;;;;;4.50;4.10;;;;;;;31.42;30.26;100766.25;3558720;40;20054;-57
2021/06/18 09:05:08;;;;;;;5.75;4.13;;;;;;;31.16;30.32;100762.50;3557180;40;20098;-55
2021/06/18 09:07:58;;;;;;;4.57;4.15;;;;;;;31.36;31.87;100754.25;3551776;40;20046;-58
2021/06/18 09:10:29;;;;;;;5.38;4.45;;;;;;;31.60;31.43;100756.34;3544511;40;20082;-56
2021/06/18 09:13:20;;;;;;;5.40;3.72;;;;;;;31.69;28.94;100750.47;3550373;40;20053;-56
2021/06/18 09:15:54;;;;;;;7.63;4.13;;;;;;;31.77;29.22;100747.38;3549305;40;20421;-54
2021/06/18 09:18:36;;;;;;;4.88;4.13;;;;;;;31.93;29.78;100737.53;3550868;40;20333;-54
2021/06/18 09:21:18;;;;;;;5.78;4.20;;;;;;;32.09;30.06;100754.19;3548772;40;20056;-57
2021/06/18 09:23:54;;;;;;;7.47;4.53;;;;;;;32.28;28.92;100756.50;3550197;40;20082;-55
2021/06/18 09:26:24;;;;;;;6.53;4.53;;;;;;;32.58;29.68;100751.03;3551898;40;20046;-56
2021/06/18 09:29:03;;;;;;;5.72;4.60;;;;;;;32.62;28.31;100754.34;3550054;40;20743;-53
2021/06/18 09:31:36;;;;;;;8.02;4.90;;;;;;;32.67;28.71;100752.22;3552998;40;20046;-55
2021/06/18 09:34:06;;;;;;;6.05;4.60;;;;;;;33.11;29.28;100751.13;3550938;40;20046;-54
2021/06/18 09:36:36;;;;;;;6.90;4.18;;;;;;;33.11;28.81;100745.81;3549328;40;20076;-56
2021/06/18 09:39:06;;;;;;;5.45;4.47;;;;;;;33.69;27.30;100747.94;3549817;40;20077;-58
2021/06/18 09:41:40;;;;;;;4.07;3.78;;;;;;;33.52;27.40;100748.31;3548987;40;20107;-53
2021/06/18 09:44:29;;;;;;;6.85;4.43;;;;;;;33.50;27.50;100749.34;3549286;40;20074;-57
2021/06/18 09:46:59;;;;;;;6.10;4.18;;;;;;;33.53;28.10;100739.38;3549886;40;20132;-54
2021/06/18 09:49:29;;;;;;;5.55;3.83;;;;;;;33.82;27.44;100737.31;3559242;40;20085;-54
2021/06/18 09:52:00;;;;;;;6.47;4.55;;;;;;;33.90;28.22;100734.97;3559921;40;20057;-55
2021/06/18 09:54:33;;;;;;;8.35;4.88;;;;;;;34.26;27.16;100735.97;3560124;40;20093;-54
2021/06/18 09:57:08;;;;;;;5.97;4.35;;;;;;;34.52;27.00;100727.88;3558785;40;20474;-57
2021/06/18 09:59:49;;;;;;;6.53;3.75;;;;;;;34.15;26.38;100734.06;3550801;40;20116;-53
2021/06/18 10:02:18;;;;;;;8.23;4.13;;;;;;;33.65;25.95;100719.06;3553092;40;20089;-56
2021/06/18 10:04:48;;;;;;;9.75;3.38;;;;;;;34.42;25.74;100723.22;3550354;40;20066;-58
2021/06/18 10:07:16;;;;;;;6.88;3.63;;;;;;;34.74;24.11;100735.97;3552754;40;20090;-58
2021/06/18 10:09:44;;;;;;;6.47;3.85;;;;;;;35.09;23.91;100737.81;3551649;40;20626;-54
2021/06/18 10:12:12;;;;;;;6.43;3.58;;;;;;;35.25;24.02;100730.31;3552536;40;20085;-55
2021/06/18 10:14:41;;;;;;;4.20;3.78;;;;;;;36.65;21.60;100728.88;3549922;40;20679;-55
2021/06/18 10:17:08;;;;;;;6.97;3.55;;;;;;;39.07;19.13;100736.94;3550326;40;20054;-54
2021/06/18 10:19:36;;;;;;;6.32;3.60;;;;;;;39.89;19.00;100747.00;3556342;40;20492;-54
2021/06/18 10:22:10;;;;;;;5.85;4.00;;;;;;;41.39;17.75;100742.69;3552794;40;20046;-56
2021/06/18 10:24:44;;;;;;;5.75;4.30;;;;;;;43.17;16.03;100756.72;3552457;40;20054;-52
2021/06/18 10:27:16;;;;;;;7.13;3.85;;;;;;;43.90;15.64;100749.41;3552913;40;20062;-57
2021/06/18 10:29:43;;;;;;;6.05;3.65;;;;;;;42.93;15.98;100741.38;3559896;40;20060;-55
2021/06/18 10:32:31;;;;;;;7.20;3.72;;;;;;;43.41;15.93;100754.97;3551409;40;20061;-56
2021/06/18 10:35:00;;;;;;;4.10;3.72;;;;;;;43.85;15.30;100751.81;3557995;40;20087;-56
2021/06/18 10:37:30;;;;;;;5.13;4.53;;;;;;;46.05;13.43;100752.50;3553025;40;20075;-55
2021/06/18 10:40:10;;;;;;;4.53;4.13;;;;;;;44.09;14.47;100737.31;3552116;40;20089;-54
2021/06/18 10:43:07;;;;;;;6.45;3.70;;;;;;;44.35;14.22;100740.56;3552855;40;20060;-56
2021/06/18 10:46:01;;;;;;;9.30;3.67;;;;;;;41.78;15.73;100747.53;3552470;40;20097;-55
2021/06/18 10:48:47;;;;;;;3.83;3.50;;;;;;;43.28;14.04;100742.03;3544818;40;20064;-56
2021/06/18 10:51:28;;;;;;;4.80;3.47;;;;;;;45.37;12.95;100740.97;3549838;40;20053;-52
2021/06/18 10:54:07;;;;;;;4.63;3.53;;;;;;;44.99;13.56;100736.66;3552936;40;20045;-55
2021/06/18 10:56:47;;;;;;;3.58;3.28;;;;;;;44.55;12.79;100740.91;3552685;40;20058;-57
2021/06/18 10:59:32;;;;;;;4.28;3.45;;;;;;;44.26;13.66;100730.00;3549845;40;20055;-58
2021/06/18 11:02:03;;;;;;;4.97;3.20;;;;;;;45.65;12.63;100737.63;3553302;40;20042;-58
2021/06/18 11:05:16;;;;;;;4.60;3.65;;;;;;;46.56;12.09;100736.19;3552767;40;20120;-55
2021/06/18 11:07:45;;;;;;;5.07;3.58;;;;;;;46.20;12.12;100725.38;3543326;40;20065;-55
2021/06/18 11:10:28;;;;;;;5.25;3.80;;;;;;;46.14;13.56;100734.25;3555391;40;20062;-58
2021/06/18 11:13:02;;;;;;;7.90;3.75;;;;;;;46.69;12.19;100736.28;3553031;40;20053;-51
2021/06/18 11:15:29;;;;;;;6.63;3.85;;;;;;;47.65;11.88;100732.94;3552885;40;20086;-53
2021/06/18 11:18:31;;;;;;;6.07;3.80;;;;;;;47.37;11.28;100727.56;3552747;40;20089;-55
2021/06/18 11:20:59;;;;;;;4.78;3.80;;;;;;;46.56;12.25;100733.47;3554808;40;20068;-56
2021/06/18 11:23:35;;;;;;;5.22;3.53;;;;;;;45.86;12.12;100728.75;3552288;40;20419;-55
2021/06/18 11:26:09;;;;;;;5.60;3.22;;;;;;;44.09;13.64;100713.88;3551896;40;20042;-56
2021/06/18 11:28:38;;;;;;;;;;;;;;;44.37;13.90;100713.34;3552586;40;20113;-57
2021/06/18 11:31:11;;;;;;;4.20;3.72;;;;;;;44.16;13.50;100716.69;3554747;40;19965;-54
2021/06/18 11:33:50;;;;;;;6.80;3.60;;;;;;;45.53;12.61;100720.19;3553013;40;20312;-56